createdAt,value
2023-03-31T00:01:26.465Z,44.81
2023-03-31T00:04:03.789Z,44.63
2023-03-31T00:06:41.877Z,44.38
2023-03-31T00:09:22.175Z,44.46
2023-03-31T00:11:51.481Z,44.42
2023-03-31T00:14:20.370Z,44.34
2023-03-31T00:16:48.658Z,44.40
2023-03-31T00:19:20.819Z,44.60
2023-03-31T00:21:49.217Z,44.49
2023-03-31T00:24:17.761Z,44.38
2023-03-31T00:26:47.931Z,44.38
2023-03-31T00:29:16.553Z,44.31
2023-03-31T00:31:44.727Z,44.47
2023-03-31T00:34:12.899Z,44.24
2023-03-31T00:36:47.721Z,44.03
2023-03-31T00:39:19.630Z,44.03
2023-03-31T00:41:48.160Z,43.77
2023-03-31T00:44:27.783Z,43.85
2023-03-31T00:47:08.125Z,43.64
2023-03-31T00:49:47.405Z,43.50
2023-03-31T00:52:21.602Z,43.36
2023-03-31T00:54:51.787Z,43.33
2023-03-31T00:57:19.962Z,43.31
2023-03-31T00:59:50.941Z,43.14
2023-03-31T01:02:21.163Z,43.25
2023-03-31T01:04:54.916Z,43.22
2023-03-31T01:07:43.588Z,43.22
2023-03-31T01:10:12.326Z,43.14
2023-03-31T01:12:41.958Z,43.21
2023-03-31T01:15:10.693Z,43.10
2023-03-31T01:17:41.162Z,43.08
2023-03-31T01:20:12.582Z,43.05
2023-03-31T01:22:49.626Z,43.11
2023-03-31T01:25:17.620Z,43.44
2023-03-31T01:27:58.765Z,43.59
2023-03-31T01:31:25.841Z,44.36
2023-03-31T01:34:15.689Z,43.87
2023-03-31T01:36:47.407Z,43.89
2023-03-31T01:39:41.042Z,43.91
2023-03-31T01:42:19.008Z,43.87
2023-03-31T01:45:12.493Z,43.85
2023-03-31T01:48:13.089Z,43.76
2023-03-31T01:50:58.122Z,43.81
2023-03-31T01:53:28.897Z,43.64
2023-03-31T01:56:25.208Z,43.71
2023-03-31T01:59:02.564Z,43.78
2023-03-31T02:01:38.113Z,43.74
2023-03-31T02:04:18.797Z,43.83
2023-03-31T02:06:53.016Z,43.98
2023-03-31T02:09:23.828Z,44.09
2023-03-31T02:11:51.971Z,44.12
2023-03-31T02:14:22.749Z,44.26
2023-03-31T02:17:08.385Z,44.44
2023-03-31T02:19:40.236Z,44.57
2023-03-31T02:22:08.497Z,44.72
2023-03-31T02:24:37.062Z,44.88
2023-03-31T02:27:28.314Z,44.96
2023-03-31T02:29:56.923Z,45.10
2023-03-31T02:32:29.358Z,45.26
2023-03-31T02:34:58.186Z,45.42
2023-03-31T02:37:26.433Z,45.59
2023-03-31T02:39:59.076Z,45.52
2023-03-31T02:42:27.558Z,45.60
2023-03-31T02:45:04.778Z,45.68
2023-03-31T02:47:33.366Z,45.83
2023-03-31T02:50:02.009Z,45.68
2023-03-31T02:52:38.871Z,45.74
2023-03-31T02:55:43.805Z,45.81
2023-03-31T02:58:22.140Z,46.01
2023-03-31T03:00:57.517Z,46.12
2023-03-31T03:03:54.656Z,46.35
2023-03-31T03:06:45.431Z,46.34
2023-03-31T03:09:37.421Z,46.48
2023-03-31T03:12:31.651Z,46.51
2023-03-31T03:15:06.086Z,46.64
2023-03-31T03:17:43.782Z,46.84
2023-03-31T03:20:12.064Z,46.90
2023-03-31T03:22:40.759Z,47.14
2023-03-31T03:25:11.736Z,47.26
2023-03-31T03:27:40.736Z,47.19
2023-03-31T03:30:12.779Z,47.26
2023-03-31T03:32:43.264Z,47.60
2023-03-31T03:35:11.465Z,47.57
2023-03-31T03:37:39.646Z,47.65
2023-03-31T03:40:08.864Z,47.93
2023-03-31T03:42:38.429Z,47.96
2023-03-31T03:45:12.288Z,48.15
2023-03-31T03:47:41.008Z,48.08
2023-03-31T03:50:10.246Z,48.06
2023-03-31T03:52:39.286Z,48.04
2023-03-31T03:55:08.234Z,47.97
2023-03-31T03:57:37.316Z,48.05
2023-03-31T04:00:12.660Z,48.15
2023-03-31T04:02:42.427Z,48.32
2023-03-31T04:05:10.889Z,48.37
2023-03-31T04:07:39.435Z,48.31
2023-03-31T04:10:09.043Z,48.27
2023-03-31T04:12:39.428Z,48.25
2023-03-31T04:15:07.864Z,48.31
2023-03-31T04:17:41.057Z,48.42
2023-03-31T04:20:10.245Z,48.34
2023-03-31T04:22:41.640Z,48.53
2023-03-31T04:25:16.469Z,48.50
2023-03-31T04:27:55.368Z,48.42
2023-03-31T04:30:31.192Z,48.52
2023-03-31T04:33:02.731Z,48.51
2023-03-31T04:35:50.396Z,48.56
2023-03-31T04:38:21.592Z,48.57
2023-03-31T04:40:51.167Z,48.53
2023-03-31T04:43:20.462Z,48.45
2023-03-31T04:45:48.486Z,48.71
2023-03-31T04:48:19.401Z,48.64
2023-03-31T04:50:48.852Z,48.58
2023-03-31T04:53:17.086Z,48.80
2023-03-31T04:55:46.282Z,48.85
2023-03-31T04:58:14.415Z,48.92
2023-03-31T05:00:44.134Z,49.00
2023-03-31T05:03:12.793Z,49.12
2023-03-31T05:05:40.859Z,49.23
2023-03-31T05:08:09.134Z,49.34
2023-03-31T05:10:46.805Z,49.41
2023-03-31T05:13:16.589Z,49.61
2023-03-31T05:15:45.511Z,49.57
2023-03-31T05:18:13.814Z,49.56
2023-03-31T05:20:42.274Z,49.50
2023-03-31T05:23:11.710Z,49.55
2023-03-31T05:25:42.418Z,49.58
2023-03-31T05:28:11.530Z,49.57
2023-03-31T05:30:42.209Z,49.51
2023-03-31T05:33:10.910Z,49.50
2023-03-31T05:35:39.311Z,49.63
2023-03-31T05:38:08.105Z,49.58
2023-03-31T05:40:37.543Z,49.54
2023-03-31T05:43:05.478Z,49.52
2023-03-31T05:45:34.806Z,49.43
2023-03-31T05:48:04.249Z,49.44
2023-03-31T05:50:32.613Z,49.52
2023-03-31T05:53:00.837Z,49.59
2023-03-31T05:55:33.503Z,49.27
2023-03-31T05:58:01.995Z,49.23
2023-03-31T06:00:29.974Z,49.19
2023-03-31T06:03:10.109Z,49.02
2023-03-31T06:05:39.498Z,49.01
2023-03-31T06:08:07.745Z,48.90
2023-03-31T06:10:38.512Z,48.79
2023-03-31T06:13:06.452Z,48.59
2023-03-31T06:15:40.841Z,48.64
2023-03-31T06:18:11.333Z,48.29
2023-03-31T06:20:39.450Z,48.18
2023-03-31T06:23:07.850Z,47.79
2023-03-31T06:25:50.402Z,47.53
2023-03-31T06:28:20.294Z,47.34
2023-03-31T06:30:48.294Z,47.11
2023-03-31T06:33:17.310Z,46.72
2023-03-31T06:35:45.523Z,46.70
2023-03-31T06:38:14.471Z,46.50
2023-03-31T06:40:42.631Z,46.01
2023-03-31T06:43:10.890Z,46.08
2023-03-31T06:45:39.096Z,45.93
2023-03-31T06:48:07.664Z,45.86
2023-03-31T06:50:38.674Z,45.56
2023-03-31T06:53:06.974Z,45.01
2023-03-31T06:55:35.637Z,44.79
2023-03-31T06:58:04.629Z,44.20
2023-03-31T07:00:32.845Z,43.64
2023-03-31T07:03:25.300Z,42.93
2023-03-31T07:05:54.582Z,43.00
2023-03-31T07:08:24.051Z,42.91
2023-03-31T07:10:57.984Z,42.58
2023-03-31T07:13:26.402Z,42.32
2023-03-31T07:15:54.649Z,41.82
2023-03-31T07:18:26.302Z,41.39
2023-03-31T07:20:54.666Z,41.19
2023-03-31T07:23:23.059Z,40.85
2023-03-31T07:25:53.275Z,40.73
2023-03-31T07:28:21.717Z,40.67
2023-03-31T07:30:49.737Z,40.66
2023-03-31T07:33:20.883Z,39.93
2023-03-31T07:35:59.939Z,39.46
2023-03-31T07:38:36.667Z,38.97
2023-03-31T07:41:09.215Z,38.83
2023-03-31T07:43:38.414Z,38.96
2023-03-31T07:46:08.510Z,38.94
2023-03-31T07:48:36.829Z,38.80
2023-03-31T07:51:06.753Z,39.04
2023-03-31T07:53:37.523Z,38.90
2023-03-31T07:56:09.871Z,39.01
2023-03-31T07:58:39.733Z,39.01
2023-03-31T08:01:10.190Z,38.97
2023-03-31T08:03:39.346Z,39.15
2023-03-31T08:06:07.753Z,39.33
2023-03-31T08:08:38.391Z,39.26
2023-03-31T08:11:07.829Z,39.23
2023-03-31T08:13:38.889Z,39.42
2023-03-31T08:16:07.011Z,39.75
2023-03-31T08:18:35.808Z,40.18
2023-03-31T08:21:04.083Z,40.50
2023-03-31T08:23:32.501Z,40.70
2023-03-31T08:26:17.697Z,41.03
2023-03-31T08:28:48.737Z,41.29
2023-03-31T08:31:18.794Z,41.41
2023-03-31T08:33:47.156Z,41.11
2023-03-31T08:36:15.150Z,41.13
2023-03-31T08:38:48.044Z,41.25
2023-03-31T08:41:34.394Z,41.22
2023-03-31T08:44:05.768Z,41.30
2023-03-31T08:46:35.700Z,41.21
2023-03-31T08:49:04.867Z,40.94
2023-03-31T08:51:35.645Z,40.58
2023-03-31T08:54:08.126Z,40.59
2023-03-31T08:56:39.301Z,40.59
2023-03-31T08:59:13.178Z,40.27
2023-03-31T09:02:07.693Z,40.15
2023-03-31T09:04:55.094Z,40.18
2023-03-31T09:07:40.536Z,40.07
2023-03-31T09:10:12.736Z,40.21
2023-03-31T09:13:07.734Z,39.40
2023-03-31T09:15:53.467Z,39.08
2023-03-31T09:18:32.453Z,39.10
2023-03-31T09:21:15.791Z,39.46
2023-03-31T09:24:26.033Z,39.32
2023-03-31T09:27:01.435Z,39.19
2023-03-31T09:29:47.760Z,39.19
2023-03-31T09:32:18.596Z,38.93
2023-03-31T09:34:47.872Z,38.87
2023-03-31T09:37:15.860Z,38.98
2023-03-31T09:39:44.818Z,39.12
2023-03-31T09:42:13.552Z,39.34
2023-03-31T09:44:43.638Z,39.33
2023-03-31T09:47:39.140Z,39.14
2023-03-31T09:50:07.880Z,39.18
2023-03-31T09:52:41.677Z,39.10
2023-03-31T09:55:39.002Z,39.13
2023-03-31T09:58:08.168Z,39.37
2023-03-31T10:00:37.573Z,39.46
2023-03-31T10:03:09.024Z,39.49
2023-03-31T10:05:50.092Z,39.33
2023-03-31T10:08:28.033Z,39.14
2023-03-31T10:11:03.175Z,38.99
2023-03-31T10:13:45.589Z,39.08
2023-03-31T10:16:24.573Z,39.02
2023-03-31T10:18:52.869Z,38.87
2023-03-31T10:21:27.236Z,38.90
2023-03-31T10:23:56.292Z,38.67
2023-03-31T10:26:28.687Z,38.55
2023-03-31T10:28:57.763Z,38.24
2023-03-31T10:31:27.286Z,38.32
2023-03-31T10:33:55.394Z,38.16
2023-03-31T10:36:27.637Z,38.10
2023-03-31T10:38:56.003Z,38.24
2023-03-31T10:41:28.625Z,38.45
2023-03-31T10:43:58.276Z,38.76
2023-03-31T10:46:47.553Z,38.84
2023-03-31T10:49:22.269Z,38.71
2023-03-31T10:51:57.851Z,38.62
2023-03-31T10:54:26.736Z,38.77
2023-03-31T10:56:56.573Z,38.53
2023-03-31T10:59:42.931Z,38.71
2023-03-31T11:02:29.134Z,38.82
2023-03-31T11:05:22.593Z,38.77
2023-03-31T11:08:05.721Z,38.60
2023-03-31T11:11:09.336Z,38.37
2023-03-31T11:13:53.020Z,38.12
2023-03-31T11:16:28.321Z,38.20
2023-03-31T11:19:29.518Z,38.12
2023-03-31T11:22:02.043Z,38.27
2023-03-31T11:24:52.975Z,38.41
2023-03-31T11:27:23.695Z,38.20
2023-03-31T11:29:54.414Z,38.01
2023-03-31T11:32:48.695Z,37.65
2023-03-31T11:35:46.413Z,37.27
2023-03-31T11:38:39.921Z,37.07
2023-03-31T11:41:21.739Z,37.36
2023-03-31T11:43:51.930Z,37.32
2023-03-31T11:46:51.441Z,36.58
2023-03-31T11:49:23.091Z,35.23
2023-03-31T11:52:09.953Z,34.90
2023-03-31T11:54:44.623Z,35.12
2023-03-31T11:57:35.347Z,34.69
2023-03-31T12:00:21.244Z,34.64
2023-03-31T12:03:09.925Z,34.93
2023-03-31T12:05:46.287Z,35.00
2023-03-31T12:08:40.913Z,34.96
2023-03-31T12:11:14.641Z,35.17
2023-03-31T12:13:46.235Z,35.32
2023-03-31T12:16:24.311Z,35.25
2023-03-31T12:19:11.055Z,35.11
2023-03-31T12:21:39.379Z,35.59
2023-03-31T12:24:11.933Z,35.66
2023-03-31T12:26:43.013Z,35.63
2023-03-31T12:29:33.084Z,36.19
2023-03-31T12:32:25.696Z,36.74
2023-03-31T12:35:02.185Z,36.97
2023-03-31T12:37:57.196Z,36.90
2023-03-31T12:40:31.533Z,37.13
2023-03-31T12:43:40.932Z,37.47
2023-03-31T12:47:03.699Z,37.71
2023-03-31T12:50:17.275Z,37.85
2023-03-31T12:53:15.802Z,38.06
2023-03-31T12:55:52.134Z,38.07
2023-03-31T12:58:25.233Z,37.75
2023-03-31T13:01:08.384Z,37.73
2023-03-31T13:03:45.150Z,37.87
2023-03-31T13:06:28.460Z,38.12
2023-03-31T13:09:11.412Z,38.31
2023-03-31T13:11:47.953Z,38.64
2023-03-31T13:14:23.709Z,38.79
2023-03-31T13:17:12.492Z,39.02
2023-03-31T13:19:42.007Z,39.22
2023-03-31T13:22:35.048Z,39.46
2023-03-31T13:25:29.690Z,39.56
2023-03-31T13:27:59.297Z,40.15
2023-03-31T13:31:02.212Z,40.90
2023-03-31T13:33:51.529Z,40.98
2023-03-31T13:36:25.581Z,41.95
2023-03-31T13:39:11.079Z,42.27
2023-03-31T13:42:03.928Z,42.51
2023-03-31T13:44:51.502Z,43.42
2023-03-31T13:49:21.820Z,45.19
2023-03-31T13:52:01.980Z,45.54
2023-03-31T13:54:36.767Z,46.72
2023-03-31T13:57:51.696Z,47.52
2023-03-31T14:00:46.930Z,48.22
2023-03-31T14:03:23.073Z,48.95
2023-03-31T14:06:15.376Z,50.10
2023-03-31T14:08:58.186Z,51.03
2023-03-31T14:11:26.923Z,51.00
2023-03-31T14:14:06.585Z,51.63
2023-03-31T14:16:38.586Z,52.32
2023-03-31T14:19:44.757Z,52.95
2023-03-31T14:22:32.452Z,53.40
2023-03-31T14:25:24.785Z,54.06
2023-03-31T14:28:21.812Z,54.50
2023-03-31T14:31:20.568Z,55.01
2023-03-31T14:34:16.598Z,56.12
2023-03-31T14:37:13.844Z,57.16
2023-03-31T14:39:51.530Z,57.35
2023-03-31T14:42:20.174Z,57.69
2023-03-31T14:44:48.793Z,58.58
2023-03-31T14:47:29.228Z,59.48
2023-03-31T14:50:13.363Z,59.51
2023-03-31T14:52:55.770Z,59.56
2023-03-31T14:55:28.607Z,60.07
2023-03-31T14:58:03.890Z,61.02
2023-03-31T15:00:32.979Z,61.11
2023-03-31T15:03:20.877Z,61.51
2023-03-31T15:05:50.273Z,62.42
2023-03-31T15:08:20.759Z,63.10
2023-03-31T15:10:58.871Z,62.91
2023-03-31T15:13:40.941Z,63.43
2023-03-31T15:16:29.723Z,64.28
2023-03-31T15:19:07.760Z,64.54
2023-03-31T15:21:37.672Z,64.81
2023-03-31T15:24:06.071Z,65.86
2023-03-31T15:26:41.491Z,65.99
2023-03-31T15:29:34.791Z,66.55
2023-03-31T15:32:13.781Z,67.17
2023-03-31T15:34:43.457Z,67.72
2023-03-31T15:37:14.354Z,67.38
2023-03-31T15:39:45.319Z,67.72
2023-03-31T15:42:13.321Z,68.42
2023-03-31T15:44:58.285Z,68.73
2023-03-31T15:47:29.596Z,68.38
2023-03-31T15:50:04.519Z,68.92
2023-03-31T15:52:35.618Z,69.30
2023-03-31T15:55:23.881Z,69.01
2023-03-31T15:57:52.009Z,68.75
2023-03-31T16:00:43.310Z,69.17
2023-03-31T16:03:17.546Z,69.57
2023-03-31T16:05:55.820Z,69.27
2023-03-31T16:08:37.554Z,69.52
2023-03-31T16:11:08.704Z,69.63
2023-03-31T16:13:47.528Z,69.25
2023-03-31T16:16:17.759Z,69.16
2023-03-31T16:18:51.170Z,69.55
2023-03-31T16:21:25.097Z,69.85
2023-03-31T16:23:54.334Z,69.66
2023-03-31T16:26:28.936Z,69.76
2023-03-31T16:28:57.744Z,70.24
2023-03-31T16:31:31.197Z,70.60
2023-03-31T16:34:00.038Z,70.28
2023-03-31T16:36:28.114Z,70.14
2023-03-31T16:38:58.158Z,70.38
2023-03-31T16:41:33.397Z,70.61
2023-03-31T16:44:01.538Z,70.10
2023-03-31T16:46:29.854Z,70.01
2023-03-31T16:48:58.257Z,70.26
2023-03-31T16:51:26.586Z,70.11
2023-03-31T16:53:57.567Z,69.92
2023-03-31T16:56:27.409Z,69.97
2023-03-31T16:58:55.991Z,70.49
2023-03-31T17:01:23.884Z,70.35
2023-03-31T17:03:52.134Z,70.08
2023-03-31T17:06:20.238Z,70.22
2023-03-31T17:08:48.329Z,70.53
2023-03-31T17:11:17.989Z,70.38
2023-03-31T17:13:46.649Z,70.26
2023-03-31T17:16:19.316Z,70.75
2023-03-31T17:18:53.334Z,70.61
2023-03-31T17:21:24.802Z,70.70
2023-03-31T17:23:55.186Z,71.13
2023-03-31T17:26:24.240Z,70.95
2023-03-31T17:28:52.783Z,71.01
2023-03-31T17:31:21.609Z,71.55
2023-03-31T17:33:49.552Z,71.40
2023-03-31T17:36:22.329Z,71.16
2023-03-31T17:38:50.959Z,71.35
2023-03-31T17:41:18.955Z,71.80
2023-03-31T17:43:50.431Z,71.40
2023-03-31T17:46:19.119Z,71.42
2023-03-31T17:48:48.605Z,71.74
2023-03-31T17:51:19.805Z,71.83
2023-03-31T17:53:57.608Z,71.52
2023-03-31T17:56:28.619Z,71.86
2023-03-31T17:58:57.409Z,72.24
2023-03-31T18:01:25.688Z,72.23
2023-03-31T18:03:55.665Z,72.32
2023-03-31T18:06:27.714Z,72.72
2023-03-31T18:08:57.117Z,73.46
2023-03-31T18:11:30.453Z,73.42
2023-03-31T18:14:11.642Z,73.65
2023-03-31T18:16:40.440Z,74.34
2023-03-31T18:19:09.710Z,74.35
2023-03-31T18:21:38.723Z,74.37
2023-03-31T18:24:07.312Z,74.52
2023-03-31T18:26:35.767Z,74.65
2023-03-31T18:29:04.860Z,75.09
2023-03-31T18:31:33.477Z,75.01
2023-03-31T18:34:02.431Z,74.93
2023-03-31T18:36:32.471Z,75.33
2023-03-31T18:39:00.585Z,75.50
2023-03-31T18:41:32.280Z,75.40
2023-03-31T18:44:01.562Z,75.39
2023-03-31T18:46:29.631Z,76.01
2023-03-31T18:48:58.774Z,76.08
2023-03-31T18:51:26.831Z,76.06
2023-03-31T18:53:55.336Z,76.02
2023-03-31T18:56:23.982Z,76.23
2023-03-31T18:58:52.890Z,77.01
2023-03-31T19:01:21.127Z,76.98
2023-03-31T19:03:50.210Z,76.95
2023-03-31T19:06:22.495Z,76.88
2023-03-31T19:08:52.152Z,77.38
2023-03-31T19:11:20.329Z,77.19
2023-03-31T19:13:48.263Z,77.19
2023-03-31T19:16:41.909Z,77.07
2023-03-31T19:19:12.697Z,77.41
2023-03-31T19:21:41.796Z,77.36
2023-03-31T19:24:09.934Z,77.42
2023-03-31T19:26:42.048Z,77.53
2023-03-31T19:29:09.974Z,77.69
2023-03-31T19:31:45.164Z,77.78
2023-03-31T19:34:14.154Z,77.73
2023-03-31T19:36:42.795Z,78.32
2023-03-31T19:39:11.746Z,78.19
2023-03-31T19:41:39.825Z,78.05
2023-03-31T19:44:07.753Z,77.93
2023-03-31T19:46:36.205Z,77.76
2023-03-31T19:49:04.449Z,78.22
2023-03-31T19:51:32.802Z,78.39
2023-03-31T19:54:00.837Z,78.27
2023-03-31T19:56:33.320Z,78.04
2023-03-31T19:59:02.795Z,78.06
2023-03-31T20:01:31.979Z,78.71
2023-03-31T20:04:05.176Z,78.60
2023-03-31T20:06:34.112Z,78.51
2023-03-31T20:09:04.812Z,78.65
2023-03-31T20:11:34.543Z,78.53
2023-03-31T20:14:03.550Z,78.65
2023-03-31T20:16:31.747Z,78.64
2023-03-31T20:19:04.195Z,78.65
2023-03-31T20:21:36.465Z,78.88
2023-03-31T20:24:06.546Z,78.49
2023-03-31T20:26:36.340Z,78.40
2023-03-31T20:29:04.518Z,78.43
2023-03-31T20:31:40.086Z,78.28
2023-03-31T20:34:12.750Z,78.43
2023-03-31T20:36:41.957Z,78.88
2023-03-31T20:39:11.190Z,78.55
2023-03-31T20:41:40.204Z,78.33
2023-03-31T20:44:12.020Z,78.23
2023-03-31T20:46:42.503Z,78.15
2023-03-31T20:49:10.957Z,78.48
2023-03-31T20:51:39.029Z,78.88
2023-03-31T20:54:08.424Z,78.92
2023-03-31T20:56:39.603Z,78.76
2023-03-31T20:59:12.266Z,78.86
2023-03-31T21:01:42.447Z,78.96
2023-03-31T21:04:12.305Z,78.95
2023-03-31T21:06:41.995Z,78.89
2023-03-31T21:09:11.913Z,79.00
2023-03-31T21:11:40.833Z,78.79
2023-03-31T21:14:15.728Z,78.76
2023-03-31T21:16:43.931Z,78.61
2023-03-31T21:19:12.541Z,78.48
2023-03-31T21:21:41.625Z,78.43
2023-03-31T21:24:11.325Z,78.44
2023-03-31T21:26:41.755Z,78.67
2023-03-31T21:29:12.699Z,78.60
2023-03-31T21:31:42.138Z,78.45
2023-03-31T21:34:11.357Z,78.32
2023-03-31T21:36:39.461Z,78.53
2023-03-31T21:39:07.899Z,79.31
2023-03-31T21:41:39.963Z,79.33
2023-03-31T21:44:09.040Z,79.13
2023-03-31T21:46:37.809Z,79.34
2023-03-31T21:49:06.467Z,79.29
2023-03-31T21:51:34.390Z,79.22
2023-03-31T21:54:02.510Z,79.85
2023-03-31T21:56:31.980Z,80.28
2023-03-31T21:59:04.382Z,80.18
2023-03-31T22:01:32.588Z,80.09
2023-03-31T22:04:00.776Z,80.15
2023-03-31T22:06:29.434Z,80.19
2023-03-31T22:08:57.351Z,80.13
2023-03-31T22:11:29.733Z,80.18
2023-03-31T22:13:58.196Z,80.25
2023-03-31T22:16:26.179Z,80.11
2023-03-31T22:18:54.911Z,80.02
2023-03-31T22:21:24.503Z,80.22
2023-03-31T22:23:59.973Z,80.19
2023-03-31T22:26:29.218Z,80.59
2023-03-31T22:29:04.596Z,80.78
2023-03-31T22:31:32.978Z,81.21
2023-03-31T22:34:01.751Z,81.50
2023-03-31T22:36:30.378Z,81.57
2023-03-31T22:38:58.609Z,81.91
2023-03-31T22:41:26.463Z,81.98
2023-03-31T22:43:54.372Z,82.19
2023-03-31T22:46:22.357Z,82.48
2023-03-31T22:48:50.612Z,82.62
2023-03-31T22:51:19.216Z,82.63
2023-03-31T22:53:51.820Z,82.76
2023-03-31T22:56:21.154Z,82.82
2023-03-31T22:58:52.518Z,82.86
2023-03-31T23:01:21.134Z,82.81
2023-03-31T23:03:50.100Z,82.99
2023-03-31T23:06:18.227Z,83.39
2023-03-31T23:08:49.096Z,83.45
2023-03-31T23:11:18.891Z,83.72
2023-03-31T23:13:50.373Z,83.88
2023-03-31T23:16:23.485Z,84.02
2023-03-31T23:18:52.952Z,83.90
2023-03-31T23:21:24.301Z,84.01
2023-03-31T23:23:53.777Z,83.90
2023-03-31T23:26:22.987Z,84.00
2023-03-31T23:28:51.159Z,84.08
2023-03-31T23:31:21.295Z,83.72
2023-03-31T23:33:49.837Z,83.55
2023-03-31T23:36:18.493Z,83.26
2023-03-31T23:38:50.580Z,83.36
2023-03-31T23:41:18.963Z,83.04
2023-03-31T23:43:46.951Z,82.87
2023-03-31T23:46:15.376Z,82.73
2023-03-31T23:48:43.308Z,82.54
2023-03-31T23:51:15.469Z,82.47
2023-03-31T23:53:44.744Z,82.44
2023-03-31T23:56:17.184Z,82.76
2023-03-31T23:58:45.291Z,82.34
